createdAt,value
2023-04-25T00:01:05.791Z,7.58
2023-04-25T00:03:33.293Z,7.48
2023-04-25T00:06:03.348Z,7.53
2023-04-25T00:08:31.369Z,7.55
2023-04-25T00:10:58.657Z,7.58
2023-04-25T00:13:26.498Z,7.54
2023-04-25T00:15:57.499Z,7.58
2023-04-25T00:18:24.185Z,7.54
2023-04-25T00:20:50.692Z,7.45
2023-04-25T00:23:20.870Z,7.53
2023-04-25T00:25:51.041Z,7.46
2023-04-25T00:28:17.708Z,7.45
2023-04-25T00:30:44.397Z,7.44
2023-04-25T00:33:10.949Z,7.45
2023-04-25T00:35:39.243Z,7.47
2023-04-25T00:38:05.703Z,7.46
2023-04-25T00:40:32.179Z,7.50
2023-04-25T00:42:58.588Z,7.46
2023-04-25T00:45:29.350Z,7.42
2023-04-25T00:47:56.161Z,7.39
2023-04-25T00:50:23.023Z,7.33
2023-04-25T00:52:49.833Z,7.30
2023-04-25T00:55:17.012Z,7.19
2023-04-25T00:57:44.047Z,7.22
2023-04-25T01:00:12.080Z,7.14
2023-04-25T01:02:38.904Z,7.06
2023-04-25T01:05:05.793Z,7.05
2023-04-25T01:07:32.479Z,7.02
2023-04-25T01:09:59.145Z,7.02
2023-04-25T01:12:25.723Z,6.95
2023-04-25T01:14:52.373Z,6.96
2023-04-25T01:17:19.516Z,6.87
2023-04-25T01:19:48.683Z,6.80
2023-04-25T01:22:15.954Z,6.77
2023-04-25T01:24:42.758Z,6.78
2023-04-25T01:27:09.522Z,6.81
2023-04-25T01:29:36.904Z,6.81
2023-04-25T01:32:04.199Z,6.77
2023-04-25T01:34:30.851Z,6.69
2023-04-25T01:36:57.367Z,6.82
2023-04-25T01:39:24.695Z,6.77
2023-04-25T01:41:51.470Z,6.76
2023-04-25T01:44:18.127Z,6.78
2023-04-25T01:46:45.138Z,6.58
2023-04-25T01:49:11.992Z,6.43
2023-04-25T01:51:38.700Z,6.43
2023-04-25T01:54:05.173Z,6.51
2023-04-25T01:56:38.604Z,6.51
2023-04-25T01:59:06.538Z,6.39
2023-04-25T02:01:33.969Z,6.43
2023-04-25T02:04:00.741Z,6.35
2023-04-25T02:06:27.492Z,6.38
2023-04-25T02:08:53.884Z,6.33
2023-04-25T02:11:20.374Z,6.37
2023-04-25T02:13:46.819Z,6.35
2023-04-25T02:16:14.108Z,6.29
2023-04-25T02:18:40.748Z,6.24
2023-04-25T02:21:07.282Z,6.24
2023-04-25T02:23:33.798Z,6.26
2023-04-25T02:26:00.438Z,6.14
2023-04-25T02:28:27.130Z,6.18
2023-04-25T02:30:53.990Z,6.10
2023-04-25T02:33:21.968Z,6.16
2023-04-25T02:35:48.587Z,6.05
2023-04-25T02:38:15.103Z,6.02
2023-04-25T02:40:42.034Z,5.98
2023-04-25T02:43:08.638Z,5.96
2023-04-25T02:45:36.023Z,5.90
2023-04-25T02:48:03.866Z,5.74
2023-04-25T02:50:30.360Z,5.77
2023-04-25T02:52:56.851Z,5.68
2023-04-25T02:55:23.980Z,5.65
2023-04-25T02:57:51.423Z,5.53
2023-04-25T03:00:18.008Z,5.47
2023-04-25T03:02:44.519Z,5.43
2023-04-25T03:05:11.004Z,5.40
2023-04-25T03:07:37.454Z,5.24
2023-04-25T03:10:04.153Z,5.26
2023-04-25T03:12:30.592Z,5.21
2023-04-25T03:14:56.976Z,5.14
2023-04-25T03:17:23.428Z,5.05
2023-04-25T03:19:50.078Z,5.00
2023-04-25T03:22:16.634Z,4.95
2023-04-25T03:24:43.240Z,4.94
2023-04-25T03:27:10.110Z,4.83
2023-04-25T03:29:36.607Z,4.81
2023-04-25T03:32:03.270Z,4.75
2023-04-25T03:34:29.973Z,4.65
2023-04-25T03:36:56.396Z,4.61
2023-04-25T03:39:22.885Z,4.57
2023-04-25T03:41:49.450Z,4.53
2023-04-25T03:44:15.917Z,4.46
2023-04-25T03:46:42.391Z,4.45
2023-04-25T03:49:08.916Z,4.45
2023-04-25T03:51:35.458Z,4.39
2023-04-25T03:54:02.050Z,4.34
2023-04-25T03:56:28.472Z,4.32
2023-04-25T03:58:54.991Z,4.31
2023-04-25T04:01:21.371Z,4.16
2023-04-25T04:03:48.263Z,4.24
2023-04-25T04:06:14.933Z,4.24
2023-04-25T04:08:41.620Z,4.14
2023-04-25T04:11:08.037Z,4.15
2023-04-25T04:13:34.563Z,4.09
2023-04-25T04:16:01.250Z,4.09
2023-04-25T04:18:27.695Z,3.92
2023-04-25T04:20:54.208Z,4.00
2023-04-25T04:23:21.050Z,3.97
2023-04-25T04:25:47.984Z,4.00
2023-04-25T04:28:14.455Z,3.93
2023-04-25T04:30:42.238Z,3.97
2023-04-25T04:33:09.467Z,3.96
2023-04-25T04:35:35.934Z,3.95
2023-04-25T04:38:02.376Z,4.05
2023-04-25T04:40:28.997Z,4.22
2023-04-25T04:42:57.401Z,4.30
2023-04-25T04:45:24.732Z,4.34
2023-04-25T04:47:51.341Z,4.57
2023-04-25T04:50:18.046Z,4.43
2023-04-25T04:52:44.654Z,4.34
2023-04-25T04:55:11.113Z,4.37
2023-04-25T04:57:37.907Z,4.39
2023-04-25T05:00:11.728Z,4.55
2023-04-25T05:02:39.605Z,4.69
2023-04-25T05:05:06.889Z,4.96
2023-04-25T05:07:33.460Z,5.03
2023-04-25T05:10:00.178Z,5.21
2023-04-25T05:12:26.696Z,5.34
2023-04-25T05:14:53.124Z,5.70
2023-04-25T05:17:19.597Z,5.84
2023-04-25T05:19:46.024Z,6.46
2023-04-25T05:22:12.523Z,7.43
2023-04-25T05:24:39.231Z,7.90
2023-04-25T05:27:06.787Z,8.84
2023-04-25T05:29:33.592Z,10.16
2023-04-25T05:32:00.198Z,10.88
2023-04-25T05:34:26.988Z,10.75
2023-04-25T05:36:53.451Z,10.25
2023-04-25T05:39:19.951Z,10.78
2023-04-25T05:41:46.373Z,11.38
2023-04-25T05:44:12.851Z,11.31
2023-04-25T05:46:39.565Z,11.00
2023-04-25T05:49:06.271Z,11.67
2023-04-25T05:51:32.796Z,12.06
2023-04-25T05:53:59.268Z,11.97
2023-04-25T05:56:25.773Z,12.03
2023-04-25T05:58:52.284Z,11.54
2023-04-25T06:01:18.780Z,12.19
2023-04-25T06:03:45.977Z,12.23
2023-04-25T06:06:12.878Z,12.10
2023-04-25T06:08:39.465Z,12.38
2023-04-25T06:11:05.994Z,11.98
2023-04-25T06:13:32.732Z,12.00
2023-04-25T06:15:59.244Z,12.48
2023-04-25T06:18:25.753Z,12.43
2023-04-25T06:20:52.174Z,11.91
2023-04-25T06:23:18.865Z,12.71
2023-04-25T06:25:45.407Z,12.74
2023-04-25T06:28:11.975Z,12.90
2023-04-25T06:30:38.669Z,13.36
2023-04-25T06:33:05.294Z,14.04
2023-04-25T06:35:31.841Z,14.06
2023-04-25T06:37:58.356Z,13.18
2023-04-25T06:40:24.954Z,12.89
2023-04-25T06:42:51.456Z,12.12
2023-04-25T06:45:17.945Z,12.59
2023-04-25T06:47:44.596Z,12.53
2023-04-25T06:50:11.944Z,13.01
2023-04-25T06:52:38.399Z,13.18
2023-04-25T06:55:06.477Z,12.68
2023-04-25T06:57:33.099Z,11.81
2023-04-25T07:00:01.537Z,11.67
2023-04-25T07:02:28.881Z,11.92
2023-04-25T07:04:57.345Z,11.54
2023-04-25T07:07:23.935Z,10.73
2023-04-25T07:09:50.404Z,10.48
2023-04-25T07:12:16.834Z,9.99
2023-04-25T07:14:43.295Z,9.82
2023-04-25T07:17:10.045Z,9.45
2023-04-25T07:19:37.706Z,9.27
2023-04-25T07:22:04.252Z,8.91
2023-04-25T07:24:30.707Z,8.92
2023-04-25T07:26:57.409Z,8.76
2023-04-25T07:29:24.288Z,9.02
2023-04-25T07:31:50.943Z,9.14
2023-04-25T07:34:17.431Z,9.19
2023-04-25T07:36:44.722Z,8.92
2023-04-25T07:39:11.799Z,8.93
2023-04-25T07:41:38.354Z,8.69
2023-04-25T07:44:05.040Z,8.64
2023-04-25T07:46:31.706Z,8.69
2023-04-25T07:48:58.327Z,8.65
2023-04-25T07:51:24.857Z,8.44
2023-04-25T07:53:51.677Z,8.39
2023-04-25T07:56:18.185Z,8.33
2023-04-25T07:58:44.666Z,8.42
2023-04-25T08:01:11.129Z,8.96
2023-04-25T08:03:37.843Z,8.79
2023-04-25T08:06:07.679Z,9.17
2023-04-25T08:08:34.817Z,9.25
2023-04-25T08:11:01.767Z,9.49
2023-04-25T08:13:28.204Z,9.23
2023-04-25T08:15:54.782Z,9.36
2023-04-25T08:18:21.384Z,9.51
2023-04-25T08:20:48.044Z,9.81
2023-04-25T08:23:14.585Z,10.59
2023-04-25T08:25:41.066Z,11.40
2023-04-25T08:28:07.675Z,11.10
2023-04-25T08:30:34.293Z,10.84
2023-04-25T08:33:01.001Z,10.87
2023-04-25T08:35:27.631Z,11.08
2023-04-25T08:37:54.214Z,10.79
2023-04-25T08:40:27.059Z,10.63
2023-04-25T08:42:55.318Z,10.14
2023-04-25T08:45:21.842Z,10.44
2023-04-25T08:47:49.953Z,10.57
2023-04-25T08:50:18.168Z,10.93
2023-04-25T08:52:47.088Z,11.56
2023-04-25T08:55:15.097Z,12.23
2023-04-25T08:57:45.582Z,11.79
2023-04-25T09:00:13.581Z,11.96
2023-04-25T09:02:41.107Z,12.84
2023-04-25T09:05:10.694Z,12.07
2023-04-25T09:07:37.255Z,12.33
2023-04-25T09:10:04.284Z,12.65
2023-04-25T09:12:31.734Z,13.05
2023-04-25T09:15:12.012Z,13.45
2023-04-25T09:17:41.486Z,12.82
2023-04-25T09:20:13.026Z,12.57
2023-04-25T09:22:40.391Z,12.26
2023-04-25T09:25:11.438Z,11.96
2023-04-25T09:27:51.605Z,11.60
2023-04-25T09:30:18.122Z,11.66
2023-04-25T09:32:45.733Z,11.76
2023-04-25T09:35:26.355Z,11.92
2023-04-25T09:37:52.914Z,11.15
2023-04-25T09:40:19.483Z,10.71
2023-04-25T09:42:46.000Z,10.58
2023-04-25T09:45:16.134Z,9.76
2023-04-25T09:47:44.922Z,9.31
2023-04-25T09:50:20.066Z,8.67
2023-04-25T09:52:46.630Z,8.71
2023-04-25T09:55:13.057Z,8.53
2023-04-25T09:57:40.850Z,8.87
2023-04-25T10:00:13.333Z,9.26
2023-04-25T10:02:43.685Z,9.45
2023-04-25T10:05:11.624Z,9.40
2023-04-25T10:07:39.800Z,8.84
2023-04-25T10:10:07.183Z,9.01
2023-04-25T10:12:34.406Z,9.54
2023-04-25T10:15:02.421Z,9.84
2023-04-25T10:17:29.416Z,10.02
2023-04-25T10:19:57.329Z,10.52
2023-04-25T10:22:42.938Z,10.65
2023-04-25T10:25:09.974Z,11.40
2023-04-25T10:27:37.943Z,11.34
2023-04-25T10:30:25.083Z,11.67
2023-04-25T10:32:51.927Z,12.07
2023-04-25T10:35:24.810Z,12.24
2023-04-25T10:38:08.188Z,11.87
2023-04-25T10:40:34.821Z,11.52
2023-04-25T10:43:32.460Z,11.07
2023-04-25T10:46:02.653Z,10.96
2023-04-25T10:48:30.924Z,10.98
2023-04-25T10:51:10.575Z,10.97
2023-04-25T10:53:37.625Z,10.62
2023-04-25T10:56:19.053Z,10.64
2023-04-25T10:58:47.239Z,10.72
2023-04-25T11:01:15.766Z,10.93
2023-04-25T11:03:44.429Z,11.28
2023-04-25T11:06:32.661Z,11.60
2023-04-25T11:09:02.141Z,11.85
2023-04-25T11:11:30.076Z,11.49
2023-04-25T11:13:56.624Z,11.42
2023-04-25T11:19:12.827Z,12.52
2023-04-25T11:21:39.486Z,12.50
2023-04-25T11:24:06.164Z,12.33
2023-04-25T11:26:32.737Z,12.33
2023-04-25T11:29:01.341Z,12.49
2023-04-25T11:31:28.030Z,12.24
2023-04-25T11:36:25.175Z,11.58
2023-04-25T11:38:52.815Z,10.98
2023-04-25T11:41:20.297Z,10.67
2023-04-25T11:43:46.991Z,10.29
2023-04-25T11:46:13.605Z,10.35
2023-04-25T11:48:41.082Z,10.00
2023-04-25T11:51:07.942Z,9.70
2023-04-25T11:53:35.098Z,9.62
2023-04-25T11:56:01.994Z,9.44
2023-04-25T11:58:28.614Z,9.36
2023-04-25T12:00:55.161Z,9.15
2023-04-25T12:03:24.914Z,9.03
2023-04-25T12:05:51.937Z,8.97
2023-04-25T12:08:18.654Z,9.20
2023-04-25T12:10:47.214Z,9.45
2023-04-25T12:13:25.668Z,10.08
2023-04-25T12:15:54.833Z,10.61
2023-04-25T12:18:24.207Z,11.06
2023-04-25T12:20:50.852Z,11.02
2023-04-25T12:23:17.318Z,11.75
2023-04-25T12:25:46.077Z,12.96
2023-04-25T12:28:20.745Z,14.16
2023-04-25T12:30:59.913Z,14.02
2023-04-25T12:33:28.859Z,14.79
2023-04-25T12:35:57.358Z,13.49
2023-04-25T12:38:31.819Z,12.77
2023-04-25T12:40:59.452Z,12.60
2023-04-25T12:43:26.239Z,12.13
2023-04-25T12:45:56.701Z,11.40
2023-04-25T12:48:23.656Z,11.31
2023-04-25T12:50:51.639Z,11.19
2023-04-25T12:53:20.509Z,11.53
2023-04-25T12:55:47.832Z,15.20
2023-04-25T12:58:15.501Z,13.22
2023-04-25T13:00:42.274Z,12.35
2023-04-25T13:03:10.487Z,11.94
2023-04-25T13:05:37.976Z,11.15
2023-04-25T13:08:05.257Z,11.05
2023-04-25T13:10:32.368Z,11.15
2023-04-25T13:12:58.861Z,11.15
2023-04-25T13:15:25.776Z,11.04
2023-04-25T13:17:52.306Z,11.36
2023-04-25T13:20:19.859Z,11.28
2023-04-25T13:22:46.752Z,12.14
2023-04-25T13:25:13.237Z,11.89
2023-04-25T13:27:41.382Z,13.58
2023-04-25T13:30:08.564Z,16.05
2023-04-25T13:32:36.987Z,16.55
2023-04-25T13:35:07.807Z,16.80
2023-04-25T13:37:36.335Z,16.82
2023-04-25T13:40:06.272Z,17.17
2023-04-25T13:42:33.280Z,17.63
2023-04-25T13:45:00.025Z,16.60
2023-04-25T13:47:27.733Z,16.25
2023-04-25T13:49:54.580Z,16.31
2023-04-25T13:52:21.583Z,16.33
2023-04-25T13:54:48.166Z,15.03
2023-04-25T13:57:14.705Z,13.29
2023-04-25T13:59:41.882Z,12.48
2023-04-25T14:02:11.204Z,11.86
2023-04-25T14:04:37.811Z,11.70
2023-04-25T14:07:05.876Z,11.44
2023-04-25T14:09:32.690Z,11.45
2023-04-25T14:11:59.222Z,11.77
2023-04-25T14:14:25.988Z,11.57
2023-04-25T14:16:54.787Z,11.86
2023-04-25T14:19:24.662Z,11.49
2023-04-25T14:21:51.360Z,11.23
2023-04-25T14:24:17.885Z,11.03
2023-04-25T14:26:44.561Z,11.46
2023-04-25T14:29:13.101Z,11.61
2023-04-25T14:31:41.222Z,11.93
2023-04-25T14:34:08.256Z,11.17
2023-04-25T14:36:35.519Z,10.91
2023-04-25T14:39:02.285Z,10.77
2023-04-25T14:41:28.831Z,10.89
2023-04-25T14:43:56.668Z,11.14
2023-04-25T14:46:24.421Z,11.34
2023-04-25T14:48:52.404Z,11.33
2023-04-25T14:51:19.041Z,11.33
2023-04-25T14:53:45.508Z,11.27
2023-04-25T14:56:12.120Z,10.86
2023-04-25T14:58:39.918Z,10.87
2023-04-25T15:01:06.459Z,11.04
2023-04-25T15:03:33.510Z,11.45
2023-04-25T15:06:00.032Z,11.34
2023-04-25T15:08:27.002Z,11.19
2023-04-25T15:10:53.470Z,11.47
2023-04-25T15:13:20.449Z,11.94
2023-04-25T15:15:52.080Z,12.07
2023-04-25T15:18:23.052Z,11.78
2023-04-25T15:20:50.056Z,12.20
2023-04-25T15:23:16.816Z,11.91
2023-04-25T15:25:43.424Z,11.52
2023-04-25T15:28:10.220Z,11.19
2023-04-25T15:30:36.729Z,10.96
2023-04-25T15:33:03.717Z,10.97
2023-04-25T15:35:30.450Z,11.01
2023-04-25T15:37:56.909Z,10.68
2023-04-25T15:40:23.402Z,10.32
2023-04-25T15:42:51.778Z,10.07
2023-04-25T15:45:19.821Z,10.21
2023-04-25T15:47:46.421Z,10.38
2023-04-25T15:50:14.966Z,10.46
2023-04-25T15:52:41.998Z,10.23
2023-04-25T15:55:09.452Z,9.92
2023-04-25T15:57:37.202Z,9.82
2023-04-25T16:00:17.034Z,9.85
2023-04-25T16:02:44.627Z,9.34
2023-04-25T16:05:13.109Z,9.34
2023-04-25T16:07:41.865Z,9.33
2023-04-25T16:10:11.081Z,9.16
2023-04-25T16:12:39.884Z,9.13
2023-04-25T16:15:06.912Z,9.26
2023-04-25T16:17:33.830Z,9.28
2023-04-25T16:20:01.930Z,9.55
2023-04-25T16:22:28.525Z,9.59
2023-04-25T16:24:55.217Z,9.68
2023-04-25T16:27:21.994Z,9.73
2023-04-25T16:29:51.230Z,9.88
2023-04-25T16:32:17.896Z,9.87
2023-04-25T16:34:44.882Z,10.04
2023-04-25T16:37:11.476Z,10.14
2023-04-25T16:39:37.955Z,9.76
2023-04-25T16:42:05.034Z,9.84
2023-04-25T16:44:31.678Z,9.59
2023-04-25T16:46:58.233Z,9.74
2023-04-25T16:49:24.767Z,9.75
2023-04-25T16:51:51.809Z,9.81
2023-04-25T16:54:18.348Z,9.79
2023-04-25T16:56:44.842Z,9.86
2023-04-25T16:59:11.438Z,9.86
2023-04-25T17:01:38.601Z,9.77
2023-04-25T17:04:05.264Z,9.54
2023-04-25T17:06:32.675Z,9.35
2023-04-25T17:08:59.165Z,9.19
2023-04-25T17:11:26.032Z,9.16
2023-04-25T17:13:52.572Z,9.09
2023-04-25T17:16:22.932Z,9.10
2023-04-25T17:18:53.367Z,9.07
2023-04-25T17:21:20.309Z,9.10
2023-04-25T17:23:47.264Z,9.08
2023-04-25T17:26:14.739Z,9.08
2023-04-25T17:28:42.169Z,9.18
2023-04-25T17:31:09.813Z,9.03
2023-04-25T17:33:36.453Z,9.12
2023-04-25T17:36:04.023Z,9.13
2023-04-25T17:38:31.600Z,9.07
2023-04-25T17:40:58.742Z,8.78
2023-04-25T17:43:26.666Z,8.65
2023-04-25T17:45:53.807Z,8.52
2023-04-25T17:48:22.837Z,8.43
2023-04-25T17:50:49.446Z,8.28
2023-04-25T17:53:16.207Z,8.15
2023-04-25T17:55:43.783Z,8.07
2023-04-25T17:58:13.066Z,7.95
2023-04-25T18:00:41.009Z,7.84
2023-04-25T18:03:07.708Z,7.77
2023-04-25T18:05:34.532Z,7.64
2023-04-25T18:08:01.044Z,7.65
2023-04-25T18:10:28.015Z,7.59
2023-04-25T18:12:54.614Z,7.54
2023-04-25T18:15:22.097Z,7.51
2023-04-25T18:17:48.780Z,7.45
2023-04-25T18:20:16.850Z,7.42
2023-04-25T18:22:44.849Z,7.27
2023-04-25T18:25:12.120Z,7.21
2023-04-25T18:27:39.738Z,7.12
2023-04-25T18:30:08.924Z,7.03
2023-04-25T18:32:35.706Z,6.96
2023-04-25T18:35:02.475Z,6.91
2023-04-25T18:37:29.015Z,6.90
2023-04-25T18:39:55.648Z,6.80
2023-04-25T18:42:22.501Z,6.81
2023-04-25T18:44:49.311Z,6.82
2023-04-25T18:47:15.910Z,6.76
2023-04-25T18:49:42.624Z,6.79
2023-04-25T18:52:10.837Z,6.73
2023-04-25T18:54:37.429Z,6.70
2023-04-25T18:57:06.321Z,6.63
2023-04-25T18:59:33.693Z,6.58
2023-04-25T19:02:05.199Z,6.50
2023-04-25T19:04:32.436Z,6.41
2023-04-25T19:06:59.766Z,6.40
2023-04-25T19:09:26.445Z,6.35
2023-04-25T19:11:52.992Z,6.26
2023-04-25T19:14:19.513Z,6.25
2023-04-25T19:16:46.365Z,6.18
2023-04-25T19:19:12.939Z,6.13
2023-04-25T19:21:39.460Z,6.11
2023-04-25T19:24:07.113Z,5.98
2023-04-25T19:26:33.883Z,5.95
2023-04-25T19:29:14.690Z,5.83
2023-04-25T19:31:44.250Z,5.78
2023-04-25T19:34:11.606Z,5.78
2023-04-25T19:36:41.054Z,5.74
2023-04-25T19:39:08.032Z,5.65
2023-04-25T19:41:36.870Z,5.64
2023-04-25T19:44:08.324Z,5.61
2023-04-25T19:46:37.020Z,5.61
2023-04-25T19:49:07.242Z,5.61
2023-04-25T19:51:34.776Z,5.65
2023-04-25T19:54:01.299Z,5.58
2023-04-25T19:56:27.934Z,5.45
2023-04-25T19:58:54.846Z,5.45
2023-04-25T20:01:22.431Z,5.33
2023-04-25T20:03:51.809Z,5.31
2023-04-25T20:06:18.845Z,5.26
2023-04-25T20:08:46.912Z,5.24
2023-04-25T20:11:13.514Z,5.24
2023-04-25T20:13:39.990Z,5.09
2023-04-25T20:16:06.632Z,4.96
2023-04-25T20:18:33.202Z,4.90
2023-04-25T20:20:59.664Z,4.76
2023-04-25T20:23:26.173Z,4.67
2023-04-25T20:25:52.654Z,4.53
2023-04-25T20:28:21.921Z,4.47
2023-04-25T20:30:49.082Z,4.51
2023-04-25T20:33:15.800Z,4.48
2023-04-25T20:35:42.259Z,4.49
2023-04-25T20:38:08.695Z,4.58
2023-04-25T20:40:35.162Z,4.51
2023-04-25T20:43:01.919Z,4.36
2023-04-25T20:45:31.840Z,4.27
2023-04-25T20:47:59.166Z,4.10
2023-04-25T20:50:26.174Z,4.10
2023-04-25T20:52:53.160Z,3.98
2023-04-25T20:55:19.850Z,3.95
2023-04-25T20:57:46.268Z,3.83
2023-04-25T21:00:17.847Z,3.86
2023-04-25T21:02:46.432Z,3.80
2023-04-25T21:05:13.260Z,3.72
2023-04-25T21:07:39.738Z,3.66
2023-04-25T21:10:06.636Z,3.60
2023-04-25T21:12:33.683Z,3.39
2023-04-25T21:15:01.452Z,3.39
2023-04-25T21:17:28.084Z,3.29
2023-04-25T21:19:54.559Z,3.19
2023-04-25T21:22:21.623Z,3.07
2023-04-25T21:24:50.738Z,3.00
2023-04-25T21:27:19.885Z,2.98
2023-04-25T21:29:46.277Z,2.90
2023-04-25T21:32:16.868Z,2.88
2023-04-25T21:34:43.613Z,2.78
2023-04-25T21:37:10.318Z,2.66
2023-04-25T21:39:36.747Z,2.60
2023-04-25T21:42:07.237Z,2.57
2023-04-25T21:44:33.674Z,2.50
2023-04-25T21:47:00.257Z,2.35
2023-04-25T21:49:29.453Z,2.28
2023-04-25T21:51:56.966Z,2.22
2023-04-25T21:54:23.360Z,2.14
2023-04-25T21:56:49.776Z,2.12
2023-04-25T21:59:16.298Z,1.96
2023-04-25T22:01:43.553Z,1.95
2023-04-25T22:04:10.313Z,1.97
2023-04-25T22:06:36.941Z,1.87
2023-04-25T22:09:04.751Z,1.78
2023-04-25T22:11:31.234Z,1.75
2023-04-25T22:13:57.716Z,1.82
2023-04-25T22:16:24.298Z,1.81
2023-04-25T22:18:52.294Z,1.83
2023-04-25T22:21:19.323Z,1.73
2023-04-25T22:23:45.877Z,1.65
2023-04-25T22:26:12.576Z,1.57
2023-04-25T22:28:39.801Z,1.61
2023-04-25T22:31:06.504Z,1.59
2023-04-25T22:33:33.485Z,1.60
2023-04-25T22:36:00.331Z,1.65
2023-04-25T22:38:27.600Z,1.71
2023-04-25T22:40:54.312Z,1.63
2023-04-25T22:43:20.996Z,1.50
2023-04-25T22:45:47.592Z,1.48
2023-04-25T22:48:14.496Z,1.44
2023-04-25T22:50:41.207Z,1.41
2023-04-25T22:53:09.161Z,1.42
2023-04-25T22:55:36.741Z,1.39
2023-04-25T22:58:04.746Z,1.28
2023-04-25T23:00:34.405Z,1.13
2023-04-25T23:03:03.281Z,1.04
2023-04-25T23:05:30.783Z,0.93
2023-04-25T23:07:57.829Z,0.89
2023-04-25T23:10:24.599Z,0.97
2023-04-25T23:12:51.035Z,0.90
2023-04-25T23:15:18.002Z,0.90
2023-04-25T23:17:44.699Z,0.90
2023-04-25T23:20:12.262Z,0.96
2023-04-25T23:22:38.977Z,0.96
2023-04-25T23:25:07.493Z,0.91
2023-04-25T23:27:33.948Z,0.81
2023-04-25T23:30:00.507Z,0.72
2023-04-25T23:32:27.181Z,0.66
2023-04-25T23:34:53.625Z,0.58
2023-04-25T23:37:20.377Z,0.53
2023-04-25T23:39:50.908Z,0.48
2023-04-25T23:42:18.368Z,0.58
2023-04-25T23:44:44.873Z,0.42
2023-04-25T23:47:14.253Z,0.42
2023-04-25T23:49:41.062Z,0.36
2023-04-25T23:52:07.822Z,0.38
2023-04-25T23:54:34.248Z,0.40
2023-04-25T23:57:00.838Z,0.41
2023-04-25T23:59:28.314Z,0.39
